SL6 weather

Public forecast

Using degrees Celsius for public forecast. Weather courtesy of forecast.io.

Closest aviation weather report (METAR) to Lourdes-de-Blanc-Sablon Water Aerodrome

Closest report is Lourdes de Blanc Sablon Airport, 2.2 nm (4.0 km) NNE. Retrieved 2020/08/09 07:00 UTC (51 minutes ago):

CYBX 090700Z 20004KT 15SM OVC005 14/14 A2986 RMK ST8 SLP113

Closest aviation forecast (TAF) to Lourdes-de-Blanc-Sablon Water Aerodrome

Closest forecast is Lourdes de Blanc Sablon Airport, 2.2 nm (4.0 km) NNE. Retrieved 2020/08/09 08:00 UTC (0 seconds ago):

TAF CYBX 090738Z 0908/0920 20005KT P6SM OVC008 TEMPO 0908/0914 2SM BR BKN004 PROB30 0908/0914 1/2SM FG VV002 FM091400 23012KT P6SM OVC010 TEMPO 0914/0916 SCT010 FM091600 23012KT P6SM FEW020 SCT120 RMK NXT FCST BY 091400Z